createdAt,value
2017-05-10T00:16:25.654Z,36.37
2017-05-10T00:36:26.200Z,62.65
2017-05-10T00:56:26.625Z,24.55
2017-05-10T01:16:26.984Z,59.18
2017-05-10T01:36:27.398Z,24.47
2017-05-10T01:56:27.808Z,34.46
2017-05-10T02:16:28.302Z,39.16
2017-05-10T02:36:28.799Z,21.85
2017-05-10T02:56:29.336Z,87.98
2017-05-10T03:15:46.405Z,77.06
2017-05-10T03:40:45.935Z,84.87
2017-05-10T04:00:46.510Z,30.58
2017-05-10T04:20:46.971Z,0.06
2017-05-10T04:40:47.586Z,1.02
2017-05-10T05:00:48.076Z,0.56
2017-05-10T05:20:48.552Z,1.52
2017-05-10T05:40:49.072Z,1.70
2017-05-10T06:00:49.566Z,1.05
2017-05-10T06:20:50.110Z,1.39
2017-05-10T06:40:50.558Z,4.23
2017-05-10T07:00:51.031Z,0.89
2017-05-10T07:20:51.565Z,0.16
2017-05-10T07:40:52.143Z,1.80
2017-05-10T08:00:52.719Z,1.06
2017-05-10T08:20:53.263Z,7.40
2017-05-10T08:40:53.835Z,58.24
2017-05-10T09:00:54.402Z,40.66
2017-05-10T09:20:54.962Z,90.58
2017-05-10T09:40:55.517Z,65.85
2017-05-10T10:00:56.018Z,96.90
2017-05-10T10:20:56.436Z,89.00
2017-05-10T10:40:56.946Z,90.81
2017-05-10T11:00:57.455Z,77.29
2017-05-10T11:25:58.146Z,44.57
2017-05-10T11:45:58.568Z,54.76
2017-05-10T12:05:59.132Z,35.55
2017-05-10T12:25:59.661Z,4.79
2017-05-10T12:46:00.208Z,12.74
2017-05-10T13:06:00.684Z,10.09
2017-05-10T13:26:01.205Z,43.19
2017-05-10T13:46:01.662Z,8.89
2017-05-10T14:06:02.157Z,0.69
2017-05-10T14:26:02.633Z,2.41
2017-05-10T14:46:47.710Z,25.48
2017-05-10T15:06:48.284Z,50.32
2017-05-10T15:26:04.346Z,0.00
2017-05-10T15:46:04.891Z,0.00
2017-05-10T16:06:05.430Z,0.01
2017-05-10T16:26:05.995Z,27.03
2017-05-10T16:46:06.554Z,6.91
2017-05-10T17:06:06.991Z,0.62
2017-05-10T17:26:07.514Z,0.00
2017-05-10T17:46:07.987Z,0.00
2017-05-10T18:06:08.555Z,0.00
2017-05-10T18:26:09.096Z,0.00
2017-05-10T18:46:09.638Z,0.00
2017-05-10T19:06:10.109Z,18.78
2017-05-10T19:26:10.782Z,63.78
2017-05-10T19:46:55.659Z,65.38
2017-05-10T20:06:56.197Z,99.03
2017-05-10T20:26:56.738Z,45.71
2017-05-10T20:46:57.208Z,8.49
2017-05-10T21:06:57.617Z,23.57
2017-05-10T21:26:58.122Z,22.35
2017-05-10T21:46:58.508Z,24.25
2017-05-10T22:06:58.922Z,28.57
2017-05-10T22:26:59.396Z,32.04
2017-05-10T22:46:59.912Z,21.70
2017-05-10T23:07:00.359Z,30.94
2017-05-10T23:32:00.976Z,36.21
2017-05-10T23:52:01.421Z,23.70
